createdAt,value
2022-09-23T00:02:06.552Z,10.12
2022-09-23T00:04:33.182Z,10.12
2022-09-23T00:06:59.653Z,10.12
2022-09-23T00:09:26.145Z,10.12
2022-09-23T00:11:52.610Z,10.11
2022-09-23T00:14:19.091Z,10.11
2022-09-23T00:16:45.611Z,10.10
2022-09-23T00:19:12.129Z,10.07
2022-09-23T00:21:38.609Z,10.06
2022-09-23T00:24:05.321Z,10.04
2022-09-23T00:26:31.846Z,10.04
2022-09-23T00:28:58.419Z,10.04
2022-09-23T00:31:27.312Z,10.02
2022-09-23T00:33:56.701Z,10.03
2022-09-23T00:36:23.860Z,10.02
2022-09-23T00:38:50.373Z,10.01
2022-09-23T00:41:17.188Z,9.99
2022-09-23T00:43:52.213Z,9.99
2022-09-23T00:46:23.463Z,9.95
2022-09-23T00:48:55.360Z,9.96
2022-09-23T00:51:24.823Z,9.95
2022-09-23T00:53:53.455Z,9.93
2022-09-23T00:56:23.018Z,9.89
2022-09-23T00:58:51.778Z,9.87
2022-09-23T01:01:19.815Z,9.87
2022-09-23T01:03:46.721Z,9.85
2022-09-23T01:06:13.894Z,9.83
2022-09-23T01:08:44.205Z,9.81
2022-09-23T01:11:28.114Z,9.82
2022-09-23T01:14:13.308Z,9.81
2022-09-23T01:16:54.574Z,9.80
2022-09-23T01:19:36.500Z,9.79
2022-09-23T01:22:13.391Z,9.76
2022-09-23T01:25:13.153Z,9.74
2022-09-23T01:27:47.575Z,9.70
2022-09-23T01:30:38.695Z,9.69
2022-09-23T01:33:06.210Z,9.67
2022-09-23T01:35:52.285Z,9.65
2022-09-23T01:38:36.268Z,9.61
2022-09-23T01:41:16.255Z,9.59
2022-09-23T01:43:46.744Z,9.55
2022-09-23T01:46:27.980Z,9.55
2022-09-23T01:49:03.983Z,9.55
2022-09-23T01:51:37.462Z,9.53
2022-09-23T01:54:19.922Z,9.54
2022-09-23T01:56:54.645Z,9.52
2022-09-23T01:59:27.891Z,9.49
2022-09-23T02:02:02.989Z,9.46
2022-09-23T02:04:39.842Z,9.47
2022-09-23T02:07:21.392Z,9.47
2022-09-23T02:09:56.188Z,9.47
2022-09-23T02:12:29.513Z,9.46
2022-09-23T02:15:06.356Z,9.44
2022-09-23T02:17:40.171Z,9.41
2022-09-23T02:20:08.589Z,9.39
2022-09-23T02:22:41.163Z,9.37
2022-09-23T02:25:10.641Z,9.34
2022-09-23T02:27:41.323Z,9.33
2022-09-23T02:30:12.982Z,9.31
2022-09-23T02:32:51.894Z,9.28
2022-09-23T02:35:32.861Z,9.29
2022-09-23T02:38:18.755Z,9.28
2022-09-23T02:40:46.213Z,9.26
2022-09-23T02:43:19.882Z,9.27
2022-09-23T02:45:47.384Z,9.25
2022-09-23T02:48:19.415Z,9.23
2022-09-23T02:50:47.705Z,9.20
2022-09-23T02:53:16.170Z,9.16
2022-09-23T02:55:42.991Z,9.13
2022-09-23T02:58:12.888Z,9.10
2022-09-23T03:00:57.401Z,9.09
2022-09-23T03:04:05.307Z,9.07
2022-09-23T03:06:44.605Z,9.07
2022-09-23T03:09:21.584Z,9.08
2022-09-23T03:11:53.198Z,9.06
2022-09-23T03:14:22.673Z,9.02
2022-09-23T03:17:04.694Z,9.02
2022-09-23T03:19:38.093Z,8.99
2022-09-23T03:22:27.671Z,8.97
2022-09-23T03:24:58.590Z,8.94
2022-09-23T03:27:30.104Z,8.94
2022-09-23T03:29:57.552Z,8.96
2022-09-23T03:32:27.970Z,8.97
2022-09-23T03:34:58.340Z,8.96
2022-09-23T03:37:32.429Z,8.96
2022-09-23T03:40:09.345Z,8.92
2022-09-23T03:42:38.170Z,8.93
2022-09-23T03:45:10.583Z,8.93
2022-09-23T03:47:39.337Z,8.93
2022-09-23T03:50:06.426Z,8.93
2022-09-23T03:52:32.883Z,8.95
2022-09-23T03:54:59.453Z,8.94
2022-09-23T03:57:26.094Z,8.93
2022-09-23T03:59:52.916Z,8.92
2022-09-23T04:02:20.548Z,8.92
2022-09-23T04:04:47.308Z,8.92
2022-09-23T04:07:14.747Z,8.93
2022-09-23T04:09:41.632Z,8.91
2022-09-23T04:12:11.719Z,8.92
2022-09-23T04:14:38.382Z,8.91
2022-09-23T04:17:05.049Z,8.91
2022-09-23T04:19:31.526Z,8.91
2022-09-23T04:21:58.092Z,8.92
2022-09-23T04:24:24.671Z,8.94
2022-09-23T04:26:53.476Z,8.93
2022-09-23T04:29:20.625Z,8.92
2022-09-23T04:31:47.807Z,8.91
2022-09-23T04:34:15.954Z,8.91
2022-09-23T04:36:42.828Z,8.91
2022-09-23T04:39:09.327Z,8.90
2022-09-23T04:41:35.904Z,8.91
2022-09-23T04:44:02.838Z,8.93
2022-09-23T04:46:29.472Z,8.95
2022-09-23T04:48:55.957Z,8.94
2022-09-23T04:51:24.852Z,8.96
2022-09-23T04:53:53.116Z,8.97
2022-09-23T04:56:22.742Z,8.97
2022-09-23T04:58:50.737Z,8.98
2022-09-23T05:01:25.690Z,8.98
2022-09-23T05:03:54.359Z,8.99
2022-09-23T05:06:22.020Z,8.98
2022-09-23T05:08:51.056Z,8.99
2022-09-23T05:11:18.724Z,9.02
2022-09-23T05:13:50.497Z,9.05
2022-09-23T05:16:17.805Z,9.06
2022-09-23T05:18:45.903Z,9.08
2022-09-23T05:21:14.261Z,9.09
2022-09-23T05:23:41.987Z,9.11
2022-09-23T05:26:11.181Z,9.14
2022-09-23T05:28:39.340Z,9.17
2022-09-23T05:31:08.746Z,9.18
2022-09-23T05:33:37.005Z,9.21
2022-09-23T05:36:04.143Z,9.23
2022-09-23T05:38:31.763Z,9.24
2022-09-23T05:41:00.253Z,9.26
2022-09-23T05:43:27.416Z,9.25
2022-09-23T05:46:07.745Z,9.26
2022-09-23T05:48:35.910Z,9.27
2022-09-23T05:51:03.026Z,9.31
2022-09-23T05:53:31.736Z,9.34
2022-09-23T05:55:58.322Z,9.38
2022-09-23T05:58:25.468Z,9.41
2022-09-23T06:00:52.353Z,9.45
2022-09-23T06:03:20.613Z,9.45
2022-09-23T06:05:48.466Z,9.47
2022-09-23T06:08:15.457Z,9.48
2022-09-23T06:10:44.646Z,9.50
2022-09-23T06:13:11.583Z,9.54
2022-09-23T06:15:39.302Z,9.56
2022-09-23T06:18:06.617Z,9.60
2022-09-23T06:20:35.478Z,9.63
2022-09-23T06:23:08.810Z,9.64
2022-09-23T06:25:39.434Z,9.66
2022-09-23T06:28:11.301Z,9.71
2022-09-23T06:30:39.356Z,9.73
2022-09-23T06:33:05.853Z,9.76
2022-09-23T06:35:33.374Z,9.79
2022-09-23T06:38:03.828Z,9.83
2022-09-23T06:40:31.382Z,9.86
2022-09-23T06:43:00.986Z,9.88
2022-09-23T06:45:28.613Z,9.93
2022-09-23T06:47:56.768Z,9.98
2022-09-23T06:50:26.364Z,10.03
2022-09-23T06:52:56.082Z,10.09
2022-09-23T06:55:24.865Z,10.15
2022-09-23T06:57:51.437Z,10.22
2022-09-23T07:00:18.398Z,10.28
2022-09-23T07:02:45.198Z,10.33
2022-09-23T07:05:12.216Z,10.39
2022-09-23T07:07:39.423Z,10.48
2022-09-23T07:10:06.808Z,10.55
2022-09-23T07:12:34.221Z,10.63
2022-09-23T07:15:01.017Z,10.70
2022-09-23T07:17:27.907Z,10.77
2022-09-23T07:19:55.051Z,10.81
2022-09-23T07:22:23.357Z,10.88
2022-09-23T07:24:49.948Z,10.94
2022-09-23T07:27:19.399Z,11.00
2022-09-23T07:29:48.987Z,11.08
2022-09-23T07:32:16.699Z,11.14
2022-09-23T07:34:43.339Z,11.20
2022-09-23T07:37:10.661Z,11.26
2022-09-23T07:39:37.457Z,11.31
2022-09-23T07:42:05.294Z,11.37
2022-09-23T07:44:33.034Z,11.42
2022-09-23T07:47:00.419Z,11.47
2022-09-23T07:49:27.706Z,11.54
2022-09-23T07:51:54.265Z,11.60
2022-09-23T07:54:21.538Z,11.67
2022-09-23T07:56:48.209Z,11.75
2022-09-23T07:59:18.231Z,11.83
2022-09-23T08:01:48.477Z,11.92
2022-09-23T08:04:23.015Z,11.98
2022-09-23T08:06:55.100Z,12.07
2022-09-23T08:09:25.250Z,12.12
2022-09-23T08:11:52.530Z,12.23
2022-09-23T08:14:19.333Z,12.30
2022-09-23T08:16:47.194Z,12.36
2022-09-23T08:19:14.663Z,12.40
2022-09-23T08:21:41.996Z,12.45
2022-09-23T08:24:12.621Z,12.52
2022-09-23T08:26:39.175Z,12.58
2022-09-23T08:29:06.867Z,12.65
2022-09-23T08:31:33.493Z,12.71
2022-09-23T08:34:00.208Z,12.76
2022-09-23T08:36:27.187Z,12.81
2022-09-23T08:38:55.310Z,12.87
2022-09-23T08:41:28.049Z,12.93
2022-09-23T08:43:59.402Z,13.00
2022-09-23T08:46:31.849Z,13.05
2022-09-23T08:49:00.412Z,13.14
2022-09-23T08:51:44.744Z,13.20
2022-09-23T08:54:12.789Z,13.27
2022-09-23T08:56:43.581Z,13.34
2022-09-23T08:59:21.258Z,13.37
2022-09-23T09:01:56.996Z,13.40
2022-09-23T09:04:46.097Z,13.44
2022-09-23T09:10:14.543Z,13.54
2022-09-23T09:12:49.382Z,13.58
2022-09-23T09:15:24.637Z,13.62
2022-09-23T09:18:08.033Z,13.66
2022-09-23T09:20:40.214Z,13.69
2022-09-23T09:23:21.601Z,13.73
2022-09-23T09:25:50.923Z,13.77
2022-09-23T09:28:31.092Z,13.79
2022-09-23T09:31:01.609Z,13.82
2022-09-23T09:33:38.335Z,13.86
2022-09-23T09:36:20.877Z,13.91
2022-09-23T09:38:47.408Z,13.94
2022-09-23T09:41:17.861Z,13.97
2022-09-23T09:43:56.358Z,14.02
2022-09-23T09:46:24.951Z,14.05
2022-09-23T09:48:53.665Z,14.08
2022-09-23T09:51:22.490Z,14.12
2022-09-23T09:53:52.135Z,14.20
2022-09-23T09:56:26.840Z,14.26
2022-09-23T09:58:58.703Z,14.35
2022-09-23T10:01:28.873Z,14.43
2022-09-23T10:03:59.501Z,14.52
2022-09-23T10:06:32.591Z,14.60
2022-09-23T10:09:03.314Z,14.66
2022-09-23T10:11:31.082Z,14.72
2022-09-23T10:14:01.121Z,14.76
2022-09-23T10:16:31.620Z,14.78
2022-09-23T10:19:00.410Z,14.80
2022-09-23T10:21:34.761Z,14.83
2022-09-23T10:24:05.616Z,14.87
2022-09-23T10:26:42.624Z,14.94
2022-09-23T10:29:24.274Z,15.00
2022-09-23T10:32:22.611Z,15.06
2022-09-23T10:35:08.994Z,15.15
2022-09-23T10:38:33.611Z,15.21
2022-09-23T10:41:20.840Z,15.22
2022-09-23T10:44:11.662Z,15.25
2022-09-23T10:46:47.147Z,15.25
2022-09-23T10:49:41.170Z,15.28
2022-09-23T10:52:15.044Z,15.30
2022-09-23T10:55:00.908Z,15.34
2022-09-23T10:57:46.996Z,15.34
2022-09-23T11:00:22.228Z,15.34
2022-09-23T11:03:00.307Z,15.38
2022-09-23T11:05:41.416Z,15.40
2022-09-23T11:08:36.394Z,15.44
2022-09-23T11:11:18.880Z,15.47
2022-09-23T11:14:08.106Z,15.49
2022-09-23T11:16:43.086Z,15.52
2022-09-23T11:19:26.387Z,15.53
2022-09-23T11:21:56.145Z,15.54
2022-09-23T11:24:58.624Z,15.54
2022-09-23T11:27:47.128Z,15.59
2022-09-23T11:30:20.160Z,15.61
2022-09-23T11:35:47.729Z,15.66
2022-09-23T11:38:21.411Z,15.71
2022-09-23T11:40:54.771Z,15.76
2022-09-23T11:43:29.229Z,15.80
2022-09-23T11:46:10.548Z,15.86
2022-09-23T11:48:45.755Z,15.92
2022-09-23T11:51:17.958Z,15.98
2022-09-23T11:53:47.373Z,16.03
2022-09-23T11:56:35.496Z,16.10
2022-09-23T11:59:36.123Z,16.12
2022-09-23T12:02:20.747Z,16.18
2022-09-23T12:04:58.648Z,16.23
2022-09-23T12:07:44.527Z,16.26
2022-09-23T12:10:11.983Z,16.29
2022-09-23T12:12:58.404Z,16.34
2022-09-23T12:15:37.407Z,16.38
2022-09-23T12:18:11.473Z,16.43
2022-09-23T12:21:02.896Z,16.42
2022-09-23T12:23:41.835Z,16.41
2022-09-23T12:26:17.271Z,16.40
2022-09-23T12:28:49.032Z,16.37
2022-09-23T12:31:21.911Z,16.37
2022-09-23T12:33:55.147Z,16.38
2022-09-23T12:36:29.784Z,16.38
2022-09-23T12:39:16.270Z,16.37
2022-09-23T12:41:46.349Z,16.40
2022-09-23T12:44:14.788Z,16.41
2022-09-23T12:46:43.725Z,16.42
2022-09-23T12:49:30.068Z,16.44
2022-09-23T12:52:27.056Z,16.45
2022-09-23T12:55:19.036Z,16.46
2022-09-23T12:57:45.690Z,16.49
2022-09-23T13:00:13.535Z,16.49
2022-09-23T13:03:10.759Z,16.53
2022-09-23T13:06:09.263Z,16.59
2022-09-23T13:08:39.083Z,16.64
2022-09-23T13:11:14.889Z,16.67
2022-09-23T13:13:44.654Z,16.68
2022-09-23T13:16:29.295Z,16.70
2022-09-23T13:19:03.338Z,16.71
2022-09-23T13:21:43.079Z,16.74
2022-09-23T13:24:13.693Z,16.74
2022-09-23T13:26:45.789Z,16.72
2022-09-23T13:29:20.711Z,16.69
2022-09-23T13:31:47.762Z,16.68
2022-09-23T13:34:19.633Z,16.67
2022-09-23T13:36:48.128Z,16.65
2022-09-23T13:39:22.601Z,16.65
2022-09-23T13:41:51.905Z,16.64
2022-09-23T13:44:20.179Z,16.62
2022-09-23T13:46:51.450Z,16.65
2022-09-23T13:49:24.402Z,16.68
2022-09-23T13:51:53.482Z,16.73
2022-09-23T13:54:33.441Z,16.78
2022-09-23T13:57:00.548Z,16.84
2022-09-23T13:59:30.239Z,16.88
2022-09-23T14:02:06.863Z,16.90
2022-09-23T14:04:33.524Z,16.92
2022-09-23T14:07:01.505Z,16.92
2022-09-23T14:09:30.328Z,16.92
2022-09-23T14:11:59.677Z,16.96
2022-09-23T14:14:28.152Z,16.98
2022-09-23T14:16:56.149Z,17.02
2022-09-23T14:19:24.859Z,17.04
2022-09-23T14:21:53.741Z,17.08
2022-09-23T14:24:30.464Z,17.07
2022-09-23T14:27:10.900Z,17.06
2022-09-23T14:29:40.488Z,17.01
2022-09-23T14:32:13.473Z,17.02
2022-09-23T14:34:43.949Z,17.02
2022-09-23T14:37:42.636Z,17.02
2022-09-23T14:40:19.023Z,17.03
2022-09-23T14:42:51.434Z,17.00
2022-09-23T14:45:24.637Z,16.99
2022-09-23T14:47:58.033Z,16.97
2022-09-23T14:50:37.127Z,16.93
2022-09-23T14:53:04.736Z,16.90
2022-09-23T14:55:31.520Z,16.87
2022-09-23T14:58:05.159Z,16.83
2022-09-23T15:00:32.151Z,16.78
2022-09-23T15:03:02.702Z,16.75
2022-09-23T15:05:40.246Z,16.70
2022-09-23T15:08:07.398Z,16.66
2022-09-23T15:10:37.582Z,16.63
2022-09-23T15:13:11.534Z,16.59
2022-09-23T15:15:38.297Z,16.55
2022-09-23T15:18:11.332Z,16.52
2022-09-23T15:20:37.990Z,16.51
2022-09-23T15:23:04.562Z,16.48
2022-09-23T15:25:40.273Z,16.46
2022-09-23T15:28:10.671Z,16.43
2022-09-23T15:30:39.041Z,16.38
2022-09-23T15:33:06.392Z,16.35
2022-09-23T15:35:33.403Z,16.32
2022-09-23T15:38:02.760Z,16.31
2022-09-23T15:40:33.805Z,16.28
2022-09-23T15:43:07.625Z,16.26
2022-09-23T15:45:38.431Z,16.24
2022-09-23T15:48:10.753Z,16.22
2022-09-23T15:50:38.080Z,16.18
2022-09-23T15:53:07.286Z,16.16
2022-09-23T15:55:35.965Z,16.13
2022-09-23T15:58:03.143Z,16.10
2022-09-23T16:00:30.606Z,16.06
2022-09-23T16:02:57.234Z,16.02
2022-09-23T16:05:33.143Z,16.00
2022-09-23T16:08:03.727Z,15.96
2022-09-23T16:10:34.081Z,15.94
2022-09-23T16:13:03.026Z,15.90
2022-09-23T16:15:31.808Z,15.85
2022-09-23T16:20:50.262Z,15.79
2022-09-23T16:23:34.459Z,15.75
2022-09-23T16:26:21.804Z,15.74
2022-09-23T16:28:50.017Z,15.70
2022-09-23T16:31:16.637Z,15.67
2022-09-23T16:33:44.307Z,15.63
2022-09-23T16:36:31.969Z,15.59
2022-09-23T16:39:01.594Z,15.57
2022-09-23T16:41:29.748Z,15.54
2022-09-23T16:43:56.892Z,15.51
2022-09-23T16:46:24.890Z,15.48
2022-09-23T16:48:53.770Z,15.46
2022-09-23T16:51:23.894Z,15.43
2022-09-23T16:53:52.549Z,15.39
2022-09-23T16:56:25.810Z,15.37
2022-09-23T16:58:55.773Z,15.33
2022-09-23T17:01:44.319Z,15.30
2022-09-23T17:04:12.069Z,15.28
2022-09-23T17:07:02.731Z,15.25
2022-09-23T17:09:30.397Z,15.21
2022-09-23T17:12:09.357Z,15.19
2022-09-23T17:14:35.877Z,15.17
2022-09-23T17:17:02.457Z,15.15
2022-09-23T17:19:29.347Z,15.14
2022-09-23T17:21:56.360Z,15.12
2022-09-23T17:24:24.082Z,15.08
2022-09-23T17:26:53.381Z,15.08
2022-09-23T17:29:20.489Z,15.05
2022-09-23T17:31:47.221Z,15.02
2022-09-23T17:34:13.921Z,14.99
2022-09-23T17:36:40.616Z,14.96
2022-09-23T17:39:07.491Z,14.93
2022-09-23T17:41:34.203Z,14.92
2022-09-23T17:44:00.990Z,14.89
2022-09-23T17:46:30.091Z,14.88
2022-09-23T17:48:57.200Z,14.87
2022-09-23T17:51:25.347Z,14.84
2022-09-23T17:53:52.301Z,14.84
2022-09-23T17:56:26.556Z,14.82
2022-09-23T17:58:53.889Z,14.78
2022-09-23T18:01:23.952Z,14.74
2022-09-23T18:03:56.363Z,14.74
2022-09-23T18:06:25.653Z,14.71
2022-09-23T18:08:52.727Z,14.70
2022-09-23T18:11:21.177Z,14.69
2022-09-23T18:13:51.172Z,14.67
2022-09-23T18:16:18.351Z,14.67
2022-09-23T18:18:50.238Z,14.66
2022-09-23T18:21:16.878Z,14.65
2022-09-23T18:23:43.434Z,14.63
2022-09-23T18:26:15.419Z,14.62
2022-09-23T18:28:43.121Z,14.61
2022-09-23T18:31:10.844Z,14.60
2022-09-23T18:33:39.227Z,14.59
2022-09-23T18:36:06.211Z,14.58
2022-09-23T18:38:33.335Z,14.57
2022-09-23T18:41:00.560Z,14.56
2022-09-23T18:43:40.752Z,14.55
2022-09-23T18:46:13.435Z,14.55
2022-09-23T18:49:19.021Z,14.53
2022-09-23T18:51:50.979Z,14.51
2022-09-23T18:54:19.452Z,14.50
2022-09-23T18:56:47.767Z,14.50
2022-09-23T18:59:17.755Z,14.48
2022-09-23T19:01:45.934Z,14.46
2022-09-23T19:04:16.110Z,14.44
2022-09-23T19:06:42.783Z,14.45
2022-09-23T19:09:09.395Z,14.44
2022-09-23T19:11:36.573Z,14.43
2022-09-23T19:14:05.892Z,14.42
2022-09-23T19:16:34.182Z,14.42
2022-09-23T19:19:02.111Z,14.40
2022-09-23T19:21:30.877Z,14.40
2022-09-23T19:24:03.714Z,14.40
2022-09-23T19:26:34.296Z,14.39
2022-09-23T19:29:03.419Z,14.38
2022-09-23T19:31:33.487Z,14.38
2022-09-23T19:34:04.564Z,14.36
2022-09-23T19:36:34.614Z,14.36
2022-09-23T19:39:03.945Z,14.34
2022-09-23T19:41:32.164Z,14.36
2022-09-23T19:44:03.635Z,14.34
2022-09-23T19:46:32.046Z,14.35
2022-09-23T19:49:00.171Z,14.35
2022-09-23T19:51:27.550Z,14.35
2022-09-23T19:53:54.169Z,14.33
2022-09-23T19:56:20.684Z,14.33
2022-09-23T19:58:54.227Z,14.33
2022-09-23T20:01:21.935Z,14.33
2022-09-23T20:03:49.064Z,14.32
2022-09-23T20:06:16.652Z,14.32
2022-09-23T20:08:45.577Z,14.32
2022-09-23T20:11:15.000Z,14.31
2022-09-23T20:13:44.016Z,14.31
2022-09-23T20:16:13.919Z,14.30
2022-09-23T20:18:41.843Z,14.29
2022-09-23T20:21:11.947Z,14.29
2022-09-23T20:23:38.559Z,14.29
2022-09-23T20:26:24.540Z,14.28
2022-09-23T20:28:51.354Z,14.28
2022-09-23T20:31:20.790Z,14.28
2022-09-23T20:33:54.208Z,14.28
2022-09-23T20:36:21.605Z,14.27
2022-09-23T20:38:48.337Z,14.26
2022-09-23T20:41:17.221Z,14.27
2022-09-23T20:43:43.839Z,14.26
2022-09-23T20:46:10.356Z,14.26
2022-09-23T20:48:37.886Z,14.27
2022-09-23T20:51:06.847Z,14.25
2022-09-23T20:53:34.502Z,14.24
2022-09-23T20:56:01.527Z,14.24
2022-09-23T20:58:30.775Z,14.23
2022-09-23T21:01:05.603Z,14.23
2022-09-23T21:03:32.838Z,14.21
2022-09-23T21:06:06.932Z,14.21
2022-09-23T21:08:35.507Z,14.21
2022-09-23T21:11:04.955Z,14.20
2022-09-23T21:13:33.631Z,14.19
2022-09-23T21:16:05.589Z,14.19
2022-09-23T21:18:32.224Z,14.19
2022-09-23T21:21:00.855Z,14.18
2022-09-23T21:23:29.303Z,14.18
2022-09-23T21:26:07.477Z,14.18
2022-09-23T21:28:37.108Z,14.16
2022-09-23T21:31:06.972Z,14.15
2022-09-23T21:33:36.617Z,14.15
2022-09-23T21:36:05.652Z,14.14
2022-09-23T21:38:36.641Z,14.13
2022-09-23T21:41:06.668Z,14.14
2022-09-23T21:43:35.167Z,14.14
2022-09-23T21:46:05.112Z,14.15
2022-09-23T21:48:33.875Z,14.14
2022-09-23T21:51:04.570Z,14.11
2022-09-23T21:53:33.113Z,14.12
2022-09-23T21:56:03.570Z,14.10
2022-09-23T21:58:32.016Z,14.09
2022-09-23T22:00:58.873Z,14.10
2022-09-23T22:03:25.747Z,14.08
2022-09-23T22:06:03.809Z,14.08
2022-09-23T22:08:36.749Z,14.06
2022-09-23T22:11:05.682Z,14.05
2022-09-23T22:13:32.537Z,14.04
2022-09-23T22:16:02.218Z,14.05
2022-09-23T22:18:28.765Z,14.05
2022-09-23T22:20:57.795Z,14.05
2022-09-23T22:23:24.968Z,14.05
2022-09-23T22:26:02.122Z,14.04
2022-09-23T22:28:50.331Z,14.03
2022-09-23T22:31:35.589Z,14.03
2022-09-23T22:34:02.107Z,14.02
2022-09-23T22:36:28.599Z,14.02
2022-09-23T22:38:59.031Z,14.02
2022-09-23T22:41:26.279Z,14.02
2022-09-23T22:43:53.858Z,14.01
2022-09-23T22:46:22.745Z,14.03
2022-09-23T22:48:52.215Z,14.02
2022-09-23T22:51:22.224Z,14.01
2022-09-23T22:53:49.489Z,14.02
2022-09-23T22:56:16.197Z,14.02
2022-09-23T22:58:42.972Z,14.01
2022-09-23T23:01:11.803Z,14.01
2022-09-23T23:03:40.297Z,14.01
2022-09-23T23:06:08.808Z,14.03
2022-09-23T23:08:36.181Z,14.03
2022-09-23T23:11:09.957Z,14.03
2022-09-23T23:13:39.186Z,14.04
2022-09-23T23:16:07.187Z,14.03
2022-09-23T23:18:35.752Z,14.04
2022-09-23T23:21:08.798Z,14.04
2022-09-23T23:23:38.425Z,14.03
2022-09-23T23:26:09.821Z,14.03
2022-09-23T23:28:36.511Z,14.03
2022-09-23T23:31:04.795Z,14.04
2022-09-23T23:33:31.648Z,14.04
2022-09-23T23:35:58.125Z,14.04
2022-09-23T23:38:24.903Z,14.06
2022-09-23T23:40:52.599Z,14.05
2022-09-23T23:43:19.820Z,14.05
2022-09-23T23:45:46.596Z,14.04
2022-09-23T23:48:13.529Z,14.06
2022-09-23T23:50:40.074Z,14.06
2022-09-23T23:53:06.593Z,14.07
2022-09-23T23:55:38.126Z,14.06
2022-09-23T23:58:04.592Z,14.06
